createdAt,value
2023-08-28T00:00:32.044Z,101829.57
2023-08-28T00:03:06.317Z,101826.63
2023-08-28T00:05:19.359Z,101821.10
2023-08-28T00:07:32.340Z,101826.31
2023-08-28T00:09:45.618Z,101825.26
2023-08-28T00:12:00.993Z,101824.29
2023-08-28T00:14:14.377Z,101821.08
2023-08-28T00:16:27.410Z,101823.55
2023-08-28T00:18:40.504Z,101824.95
2023-08-28T00:20:53.552Z,101826.08
2023-08-28T00:23:07.372Z,101826.02
2023-08-28T00:25:20.780Z,101826.95
2023-08-28T00:27:33.769Z,101827.51
2023-08-28T00:29:48.454Z,101832.41
2023-08-28T00:32:01.312Z,101831.80
2023-08-28T00:34:14.113Z,101832.77
2023-08-28T00:36:27.180Z,101829.64
2023-08-28T00:38:41.304Z,101831.08
2023-08-28T00:40:55.046Z,101832.38
2023-08-28T00:43:08.069Z,101831.25
2023-08-28T00:45:21.488Z,101832.67
2023-08-28T00:47:34.619Z,101833.16
2023-08-28T00:49:48.522Z,101831.05
2023-08-28T00:52:01.353Z,101833.01
2023-08-28T00:54:14.785Z,101830.83
2023-08-28T00:56:28.385Z,101832.05
2023-08-28T00:58:42.251Z,101830.90
2023-08-28T01:00:55.454Z,101826.07
2023-08-28T01:03:09.032Z,101825.64
2023-08-28T01:05:22.701Z,101826.31
2023-08-28T01:07:43.601Z,101830.65
2023-08-28T01:10:14.432Z,101829.78
2023-08-28T01:12:35.330Z,101830.23
2023-08-28T01:15:01.071Z,101833.75
2023-08-28T01:17:16.813Z,101838.23
2023-08-28T01:19:36.907Z,101834.68
2023-08-28T01:21:54.552Z,101830.71
2023-08-28T01:24:10.782Z,101829.59
2023-08-28T01:26:24.382Z,101832.96
2023-08-28T01:28:37.561Z,101837.45
2023-08-28T01:30:55.884Z,101839.89
2023-08-28T01:33:09.266Z,101842.09
2023-08-28T01:35:26.485Z,101841.06
2023-08-28T01:37:48.775Z,101844.61
2023-08-28T01:40:08.061Z,101841.09
2023-08-28T01:42:22.607Z,101837.87
2023-08-28T01:44:39.840Z,101837.02
2023-08-28T01:46:53.769Z,101838.67
2023-08-28T01:49:07.579Z,101840.30
2023-08-28T01:51:20.619Z,101835.66
2023-08-28T01:53:34.078Z,101836.14
2023-08-28T01:56:12.299Z,101835.84
2023-08-28T01:58:26.150Z,101839.13
2023-08-28T02:00:38.477Z,101836.95
2023-08-28T02:02:48.810Z,101839.38
2023-08-28T02:05:01.919Z,101839.39
2023-08-28T02:07:14.840Z,101838.63
2023-08-28T02:09:27.978Z,101839.55
2023-08-28T02:11:41.070Z,101837.84
2023-08-28T02:13:53.942Z,101837.07
2023-08-28T02:16:07.264Z,101839.69
2023-08-28T02:18:20.693Z,101839.31
2023-08-28T02:20:34.533Z,101844.50
2023-08-28T02:22:47.276Z,101845.80
2023-08-28T02:25:00.800Z,101845.12
2023-08-28T02:27:14.039Z,101845.85
2023-08-28T02:29:27.251Z,101852.11
2023-08-28T02:31:40.251Z,101852.58
2023-08-28T02:33:53.193Z,101849.21
2023-08-28T02:36:07.356Z,101853.07
2023-08-28T02:38:21.092Z,101850.69
2023-08-28T02:40:34.544Z,101855.55
2023-08-28T02:42:48.784Z,101852.90
2023-08-28T02:45:02.029Z,101856.33
2023-08-28T02:47:14.826Z,101858.00
2023-08-28T02:49:27.837Z,101858.42
2023-08-28T02:51:40.892Z,101860.58
2023-08-28T02:53:53.953Z,101863.21
2023-08-28T02:56:28.742Z,101865.69
2023-08-28T02:58:41.624Z,101863.98
2023-08-28T03:00:55.941Z,101870.30
2023-08-28T03:03:10.631Z,101865.59
2023-08-28T03:05:24.087Z,101864.83
2023-08-28T03:07:36.960Z,101870.14
2023-08-28T03:09:49.769Z,101870.01
2023-08-28T03:12:02.691Z,101867.41
2023-08-28T03:14:19.083Z,101868.15
2023-08-28T03:16:34.876Z,101866.39
2023-08-28T03:18:48.010Z,101868.79
2023-08-28T03:21:01.298Z,101872.56
2023-08-28T03:23:14.339Z,101873.77
2023-08-28T03:25:27.864Z,101876.02
2023-08-28T03:27:41.517Z,101875.59
2023-08-28T03:29:55.441Z,101871.42
2023-08-28T03:32:09.336Z,101874.98
2023-08-28T03:34:22.091Z,101877.02
2023-08-28T03:36:34.887Z,101878.95
2023-08-28T03:38:47.909Z,101884.66
2023-08-28T03:41:02.049Z,101886.96
2023-08-28T03:43:15.548Z,101888.33
2023-08-28T03:45:29.151Z,101890.68
2023-08-28T03:47:42.239Z,101890.35
2023-08-28T03:49:55.249Z,101890.63
2023-08-28T03:52:08.660Z,101896.10
2023-08-28T03:54:21.681Z,101896.39
2023-08-28T03:56:35.060Z,101899.73
2023-08-28T03:58:48.441Z,101897.38
2023-08-28T04:01:01.459Z,101897.23
2023-08-28T04:03:14.759Z,101902.83
2023-08-28T04:05:28.951Z,101903.95
2023-08-28T04:07:42.847Z,101901.30
2023-08-28T04:09:56.039Z,101902.62
2023-08-28T04:12:09.443Z,101903.05
2023-08-28T04:14:22.861Z,101903.30
2023-08-28T04:16:36.910Z,101907.80
2023-08-28T04:18:50.732Z,101902.70
2023-08-28T04:21:07.003Z,101903.49
2023-08-28T04:23:20.039Z,101906.90
2023-08-28T04:25:33.141Z,101910.45
2023-08-28T04:27:46.474Z,101908.28
2023-08-28T04:29:59.878Z,101907.83
2023-08-28T04:32:14.286Z,101909.54
2023-08-28T04:34:27.566Z,101909.36
2023-08-28T04:36:40.473Z,101911.04
2023-08-28T04:38:53.723Z,101907.91
2023-08-28T04:41:07.846Z,101910.78
2023-08-28T04:43:20.664Z,101911.71
2023-08-28T04:45:33.950Z,101909.88
2023-08-28T04:47:49.627Z,101904.98
2023-08-28T04:50:02.822Z,101910.20
2023-08-28T04:52:15.794Z,101911.52
2023-08-28T04:54:29.211Z,101904.73
2023-08-28T04:56:41.871Z,101904.48
2023-08-28T04:58:54.786Z,101906.13
2023-08-28T05:01:07.960Z,101907.70
2023-08-28T05:03:21.053Z,101907.29
2023-08-28T05:05:34.426Z,101909.81
2023-08-28T05:07:47.416Z,101909.45
2023-08-28T05:10:00.290Z,101911.94
2023-08-28T05:12:13.807Z,101912.75
2023-08-28T05:14:26.649Z,101912.27
2023-08-28T05:16:39.954Z,101909.88
2023-08-28T05:18:52.860Z,101909.73
2023-08-28T05:21:08.389Z,101911.77
2023-08-28T05:23:27.501Z,101913.61
2023-08-28T05:25:40.609Z,101912.39
2023-08-28T05:27:53.420Z,101914.55
2023-08-28T05:30:07.405Z,101913.55
2023-08-28T05:32:20.793Z,101915.72
2023-08-28T05:34:34.853Z,101914.52
2023-08-28T05:36:48.463Z,101911.79
2023-08-28T05:39:01.233Z,101914.27
2023-08-28T05:41:14.128Z,101912.02
2023-08-28T05:43:27.063Z,101912.73
2023-08-28T05:45:41.214Z,101911.73
2023-08-28T05:47:54.429Z,101910.84
2023-08-28T05:50:08.652Z,101907.54
2023-08-28T05:52:24.420Z,101900.83
2023-08-28T05:54:37.741Z,101903.74
2023-08-28T05:56:50.739Z,101903.43
2023-08-28T05:59:04.265Z,101904.94
2023-08-28T06:01:17.098Z,101903.19
2023-08-28T06:03:31.436Z,101909.33
2023-08-28T06:05:44.378Z,101901.67
2023-08-28T06:07:58.186Z,101898.86
2023-08-28T06:10:12.288Z,101899.90
2023-08-28T06:12:25.128Z,101890.83
2023-08-28T06:14:38.626Z,101888.39
2023-08-28T06:16:51.988Z,101887.53
2023-08-28T06:19:06.139Z,101885.86
2023-08-28T06:21:19.135Z,101883.27
2023-08-28T06:23:32.147Z,101881.74
2023-08-28T06:25:45.082Z,101881.43
2023-08-28T06:27:58.167Z,101881.05
2023-08-28T06:30:12.532Z,101879.25
2023-08-28T06:32:25.441Z,101882.61
2023-08-28T06:34:38.811Z,101881.63
2023-08-28T06:36:52.019Z,101885.24
2023-08-28T06:39:06.405Z,101882.07
2023-08-28T06:41:19.593Z,101881.04
2023-08-28T06:43:32.706Z,101882.69
2023-08-28T06:45:45.511Z,101885.60
2023-08-28T06:47:59.824Z,101883.15
2023-08-28T06:50:13.829Z,101882.38
2023-08-28T06:52:27.110Z,101884.08
2023-08-28T06:56:56.682Z,101880.16
2023-08-28T06:59:10.271Z,101880.88
2023-08-28T07:01:23.491Z,101880.63
2023-08-28T07:03:36.479Z,101880.92
2023-08-28T07:05:50.203Z,101880.21
2023-08-28T07:08:03.215Z,101880.80
2023-08-28T07:10:16.881Z,101881.61
2023-08-28T07:12:29.680Z,101883.64
2023-08-28T07:14:42.415Z,101883.96
2023-08-28T07:16:55.632Z,101882.88
2023-08-28T07:19:08.932Z,101881.69
2023-08-28T07:21:21.699Z,101883.15
2023-08-28T07:23:35.260Z,101888.19
2023-08-28T07:25:48.559Z,101890.54
2023-08-28T07:28:01.560Z,101890.25
2023-08-28T07:30:17.866Z,101889.34
2023-08-28T07:32:31.027Z,101885.08
2023-08-28T07:34:44.208Z,101885.70
2023-08-28T07:36:58.111Z,101886.48
2023-08-28T07:39:10.751Z,101884.11
2023-08-28T07:41:23.806Z,101883.45
2023-08-28T07:43:36.585Z,101884.18
2023-08-28T07:45:49.582Z,101885.51
2023-08-28T07:48:03.166Z,101885.11
2023-08-28T07:50:16.182Z,101884.16
2023-08-28T07:52:28.718Z,101878.73
2023-08-28T07:54:41.264Z,101876.48
2023-08-28T07:56:53.710Z,101873.41
2023-08-28T07:59:06.566Z,101876.06
2023-08-28T08:01:18.950Z,101879.05
2023-08-28T08:03:32.203Z,101880.05
2023-08-28T08:05:44.888Z,101883.65
2023-08-28T08:07:57.896Z,101882.86
2023-08-28T08:10:13.934Z,101884.15
2023-08-28T08:12:28.676Z,101887.71
2023-08-28T08:14:41.140Z,101890.63
2023-08-28T08:16:53.572Z,101882.32
2023-08-28T08:19:06.588Z,101885.79
2023-08-28T08:21:19.673Z,101883.60
2023-08-28T08:23:32.729Z,101884.77
2023-08-28T08:25:45.901Z,101884.38
2023-08-28T08:28:01.329Z,101881.94
2023-08-28T08:30:17.512Z,101879.94
2023-08-28T08:32:30.341Z,101882.47
2023-08-28T08:34:43.383Z,101888.92
2023-08-28T08:36:55.953Z,101893.47
2023-08-28T08:39:08.432Z,101890.85
2023-08-28T08:41:21.138Z,101891.64
2023-08-28T08:43:37.588Z,101889.73
2023-08-28T08:45:52.633Z,101898.45
2023-08-28T08:48:07.244Z,101891.66
2023-08-28T08:50:22.964Z,101888.52
2023-08-28T08:52:38.038Z,101889.20
2023-08-28T08:54:51.604Z,101884.17
2023-08-28T08:57:12.250Z,101883.64
2023-08-28T08:59:25.255Z,101876.98
2023-08-28T09:01:41.696Z,101878.59
2023-08-28T09:03:55.172Z,101884.97
2023-08-28T09:06:09.016Z,101880.42
2023-08-28T09:08:24.349Z,101877.54
2023-08-28T09:10:38.091Z,101874.81
2023-08-28T09:12:51.946Z,101866.35
2023-08-28T09:15:04.881Z,101857.95
2023-08-28T09:17:17.555Z,101858.33
2023-08-28T09:19:30.341Z,101865.58
2023-08-28T09:21:47.407Z,101856.80
2023-08-28T09:24:00.249Z,101849.90
2023-08-28T09:26:15.577Z,101852.05
2023-08-28T09:28:28.177Z,101846.34
2023-08-28T09:30:41.820Z,101844.45
2023-08-28T09:32:54.608Z,101849.48
2023-08-28T09:35:10.821Z,101846.44
2023-08-28T09:37:24.128Z,101844.58
2023-08-28T09:39:36.661Z,101842.38
2023-08-28T09:41:50.789Z,101842.63
2023-08-28T09:44:06.846Z,101838.80
2023-08-28T09:46:20.569Z,101837.84
2023-08-28T09:48:39.281Z,101835.88
2023-08-28T09:50:58.066Z,101831.27
2023-08-28T09:53:18.406Z,101831.15
2023-08-28T09:55:33.733Z,101829.89
2023-08-28T09:57:49.215Z,101829.89
2023-08-28T10:00:01.798Z,101827.19
2023-08-28T10:02:22.712Z,101827.36
2023-08-28T10:04:37.207Z,101830.39
2023-08-28T10:06:53.207Z,101828.39
2023-08-28T10:09:08.294Z,101825.61
2023-08-28T10:11:20.972Z,101826.52
2023-08-28T10:13:35.757Z,101826.44
2023-08-28T10:16:04.956Z,101822.77
2023-08-28T10:18:24.720Z,101829.46
2023-08-28T10:20:38.781Z,101832.48
2023-08-28T10:22:53.122Z,101828.55
2023-08-28T10:25:06.100Z,101833.27
2023-08-28T10:27:18.636Z,101838.42
2023-08-28T10:29:32.240Z,101839.16
2023-08-28T10:31:45.549Z,101836.17
2023-08-28T10:33:59.146Z,101838.25
2023-08-28T10:36:24.293Z,101839.96
2023-08-28T10:38:57.307Z,101833.58
2023-08-28T10:41:12.422Z,101832.79
2023-08-28T10:43:27.013Z,101837.86
2023-08-28T10:45:42.770Z,101836.32
2023-08-28T10:47:57.219Z,101834.35
2023-08-28T10:50:12.237Z,101833.80
2023-08-28T10:52:25.889Z,101837.93
2023-08-28T10:54:47.197Z,101843.98
2023-08-28T10:57:05.627Z,101842.60
2023-08-28T10:59:35.018Z,101839.17
2023-08-28T11:01:58.519Z,101836.48
2023-08-28T11:04:22.376Z,101839.71
2023-08-28T11:06:46.159Z,101835.29
2023-08-28T11:09:01.725Z,101831.81
2023-08-28T11:11:23.520Z,101836.80
2023-08-28T11:13:36.079Z,101833.96
2023-08-28T11:15:51.008Z,101831.58
2023-08-28T11:18:32.690Z,101832.40
2023-08-28T11:20:46.150Z,101840.82
2023-08-28T11:23:06.967Z,101843.95
2023-08-28T11:25:38.991Z,101847.02
2023-08-28T11:27:55.534Z,101847.83
2023-08-28T11:30:10.440Z,101843.56
2023-08-28T11:32:24.981Z,101841.62
2023-08-28T11:34:38.604Z,101843.58
2023-08-28T11:36:51.250Z,101840.83
2023-08-28T11:39:06.095Z,101845.66
2023-08-28T11:41:20.358Z,101842.05
2023-08-28T11:43:33.758Z,101843.68
2023-08-28T11:45:46.740Z,101838.30
2023-08-28T11:48:02.649Z,101838.35
2023-08-28T11:50:15.678Z,101838.98
2023-08-28T11:52:29.191Z,101834.56
2023-08-28T11:54:41.691Z,101836.30
2023-08-28T11:56:56.070Z,101837.69
2023-08-28T11:59:09.752Z,101837.33
2023-08-28T12:01:25.157Z,101837.52
2023-08-28T12:03:38.683Z,101839.13
2023-08-28T12:05:51.242Z,101840.16
2023-08-28T12:08:02.081Z,101836.25
2023-08-28T12:10:15.711Z,101834.06
2023-08-28T12:12:30.060Z,101835.44
2023-08-28T12:14:46.366Z,101839.84
2023-08-28T12:17:07.727Z,101839.15
2023-08-28T12:19:24.976Z,101837.20
2023-08-28T12:21:42.271Z,101841.70
2023-08-28T12:24:00.351Z,101843.80
2023-08-28T12:26:13.954Z,101843.36
2023-08-28T12:28:29.068Z,101843.82
2023-08-28T12:30:42.825Z,101843.23
2023-08-28T12:32:59.445Z,101844.90
2023-08-28T12:35:18.765Z,101845.52
2023-08-28T12:37:45.198Z,101843.83
2023-08-28T12:40:00.415Z,101846.24
2023-08-28T12:42:16.934Z,101842.19
2023-08-28T12:44:31.310Z,101840.92
2023-08-28T12:46:44.037Z,101839.42
2023-08-28T12:48:58.267Z,101837.48
2023-08-28T12:51:10.917Z,101835.90
2023-08-28T12:53:23.668Z,101834.95
2023-08-28T12:55:37.036Z,101835.88
2023-08-28T12:57:50.050Z,101836.78
2023-08-28T13:00:08.754Z,101839.00
2023-08-28T13:02:21.930Z,101838.91
2023-08-28T13:04:35.143Z,101835.24
2023-08-28T13:06:47.839Z,101834.95
2023-08-28T13:09:00.619Z,101838.95
2023-08-28T13:11:13.393Z,101839.70
2023-08-28T13:13:27.639Z,101840.69
2023-08-28T13:15:43.171Z,101838.61
2023-08-28T13:17:58.671Z,101836.29
2023-08-28T13:20:14.753Z,101838.38
2023-08-28T13:22:27.569Z,101840.89
2023-08-28T13:24:44.244Z,101850.48
2023-08-28T13:26:58.291Z,101850.08
2023-08-28T13:29:11.414Z,101851.86
2023-08-28T13:31:24.603Z,101852.75
2023-08-28T13:33:37.471Z,101849.95
2023-08-28T13:35:50.816Z,101856.31
2023-08-28T13:38:03.620Z,101854.51
2023-08-28T13:40:17.252Z,101859.35
2023-08-28T13:42:30.259Z,101859.05
2023-08-28T13:44:43.490Z,101860.09
2023-08-28T13:46:56.241Z,101859.33
2023-08-28T13:49:09.167Z,101859.30
2023-08-28T13:51:21.975Z,101864.54
2023-08-28T13:53:35.215Z,101865.05
2023-08-28T13:55:48.053Z,101870.40
2023-08-28T13:58:01.143Z,101871.29
2023-08-28T14:00:16.594Z,101876.73
2023-08-28T14:02:29.588Z,101873.38
2023-08-28T14:04:42.496Z,101873.67
2023-08-28T14:06:55.218Z,101872.64
2023-08-28T14:09:08.097Z,101869.83
2023-08-28T14:11:20.896Z,101873.13
2023-08-28T14:13:33.616Z,101871.60
2023-08-28T14:15:47.349Z,101873.80
2023-08-28T14:18:01.630Z,101873.48
2023-08-28T14:20:16.757Z,101878.59
2023-08-28T14:22:29.737Z,101877.10
2023-08-28T14:24:43.181Z,101878.58
2023-08-28T14:26:56.149Z,101882.45
2023-08-28T14:29:09.858Z,101883.71
2023-08-28T14:31:22.695Z,101883.39
2023-08-28T14:33:35.586Z,101877.10
2023-08-28T14:35:51.177Z,101880.38
2023-08-28T14:38:04.946Z,101880.55
2023-08-28T14:40:23.909Z,101879.88
2023-08-28T14:42:41.993Z,101874.59
2023-08-28T14:44:54.904Z,101873.98
2023-08-28T14:47:08.129Z,101875.02
2023-08-28T14:49:20.926Z,101878.53
2023-08-28T14:51:33.870Z,101883.13
2023-08-28T14:53:46.935Z,101879.77
2023-08-28T14:55:59.959Z,101879.67
2023-08-28T14:58:13.093Z,101884.02
2023-08-28T15:00:27.149Z,101884.09
2023-08-28T15:02:41.448Z,101885.16
2023-08-28T15:04:54.546Z,101885.61
2023-08-28T15:07:07.961Z,101888.52
2023-08-28T15:09:21.100Z,101893.80
2023-08-28T15:11:34.015Z,101894.41
2023-08-28T15:13:47.728Z,101897.77
2023-08-28T15:16:01.797Z,101899.25
2023-08-28T15:18:14.744Z,101905.11
2023-08-28T15:20:27.758Z,101902.97
2023-08-28T15:22:40.909Z,101905.01
2023-08-28T15:24:53.916Z,101905.82
2023-08-28T15:27:07.083Z,101907.90
2023-08-28T15:29:21.058Z,101908.78
2023-08-28T15:31:35.662Z,101911.73
2023-08-28T15:33:48.559Z,101913.55
2023-08-28T15:36:01.468Z,101911.54
2023-08-28T15:38:14.252Z,101911.13
2023-08-28T15:40:27.015Z,101914.34
2023-08-28T15:42:39.747Z,101916.68
2023-08-28T15:44:52.800Z,101918.25
2023-08-28T15:47:06.859Z,101922.69
2023-08-28T15:49:20.939Z,101920.42
2023-08-28T15:51:33.769Z,101921.77
2023-08-28T15:53:46.730Z,101926.17
2023-08-28T15:56:02.827Z,101924.22
2023-08-28T15:58:15.681Z,101924.27
2023-08-28T16:00:29.013Z,101924.90
2023-08-28T16:02:42.320Z,101927.16
2023-08-28T16:04:55.112Z,101924.88
2023-08-28T16:07:08.287Z,101926.42
2023-08-28T16:09:21.258Z,101930.48
2023-08-28T16:11:35.316Z,101931.39
2023-08-28T16:13:48.151Z,101930.75
2023-08-28T16:16:01.034Z,101935.35
2023-08-28T16:18:14.187Z,101936.27
2023-08-28T16:20:30.669Z,101933.77
2023-08-28T16:22:43.656Z,101932.91
2023-08-28T16:24:59.164Z,101934.70
2023-08-28T16:27:12.619Z,101935.65
2023-08-28T16:29:25.747Z,101933.84
2023-08-28T16:31:41.761Z,101935.05
2023-08-28T16:33:55.302Z,101932.00
2023-08-28T16:36:08.535Z,101931.92
2023-08-28T16:38:21.615Z,101929.54
2023-08-28T16:40:34.610Z,101931.69
2023-08-28T16:42:47.855Z,101932.02
2023-08-28T16:45:00.613Z,101935.21
2023-08-28T16:47:13.607Z,101937.39
2023-08-28T16:49:26.604Z,101939.88
2023-08-28T16:51:41.313Z,101945.09
2023-08-28T16:53:54.282Z,101953.22
2023-08-28T16:56:07.355Z,101951.39
2023-08-28T16:58:20.165Z,101949.50
2023-08-28T17:00:36.461Z,101953.85
2023-08-28T17:02:50.034Z,101947.02
2023-08-28T17:05:03.833Z,101950.31
2023-08-28T17:07:17.508Z,101953.39
2023-08-28T18:04:32.837Z,101963.91
2023-08-28T18:06:47.832Z,101965.64
2023-08-28T18:09:00.731Z,101961.65
2023-08-28T18:11:13.462Z,101961.67
2023-08-28T18:13:26.369Z,101963.85
2023-08-28T18:15:41.838Z,101965.63
2023-08-28T18:17:54.873Z,101968.41
2023-08-28T18:20:08.540Z,101969.98
2023-08-28T18:22:21.308Z,101969.30
2023-08-28T18:24:35.428Z,101969.91
2023-08-28T18:26:48.713Z,101965.55
2023-08-28T18:29:01.829Z,101966.95
2023-08-28T18:31:14.941Z,101969.86
2023-08-28T18:33:27.970Z,101965.50
2023-08-28T18:35:40.745Z,101965.95
2023-08-28T18:37:56.904Z,101968.20
2023-08-28T18:40:13.449Z,101969.36
2023-08-28T18:42:26.353Z,101973.45
2023-08-28T18:44:39.181Z,101968.04
2023-08-28T18:46:51.955Z,101970.41
2023-08-28T18:49:05.368Z,101973.40
2023-08-28T18:51:19.801Z,101969.83
2023-08-28T18:53:33.013Z,101967.41
2023-08-28T18:55:46.611Z,101960.73
2023-08-28T18:58:00.006Z,101958.46
2023-08-28T19:00:15.765Z,101958.14
2023-08-28T19:02:28.720Z,101958.01
2023-08-28T19:04:42.562Z,101963.33
2023-08-28T19:06:55.450Z,101962.65
2023-08-28T19:09:09.377Z,101961.04
2023-08-28T19:11:22.435Z,101962.46
2023-08-28T19:13:36.066Z,101963.52
2023-08-28T19:15:50.190Z,101957.98
2023-08-28T19:18:03.844Z,101959.77
2023-08-28T19:20:18.106Z,101960.31
2023-08-28T19:22:31.012Z,101960.94
2023-08-28T19:24:44.107Z,101962.61
2023-08-28T19:26:57.217Z,101962.27
2023-08-28T19:29:10.946Z,101957.79
2023-08-28T19:31:24.794Z,101956.14
2023-08-28T19:33:37.984Z,101956.89
2023-08-28T19:35:52.065Z,101953.78
2023-08-28T19:38:06.274Z,101952.20
2023-08-28T19:40:21.387Z,101950.02
2023-08-28T19:42:34.431Z,101949.89
2023-08-28T19:44:47.618Z,101951.93
2023-08-28T19:47:00.545Z,101955.36
2023-08-28T19:49:13.541Z,101953.33
2023-08-28T19:51:29.442Z,101954.52
2023-08-28T19:53:42.278Z,101953.96
2023-08-28T19:55:55.264Z,101951.90
2023-08-28T19:58:08.975Z,101950.30
2023-08-28T20:00:22.679Z,101945.02
2023-08-28T20:02:35.555Z,101946.71
2023-08-28T20:04:49.431Z,101946.38
2023-08-28T20:07:02.472Z,101947.68
2023-08-28T20:09:16.629Z,101949.79
2023-08-28T20:11:29.919Z,101952.62
2023-08-28T20:13:42.851Z,101948.57
2023-08-28T20:15:58.829Z,101951.67
2023-08-28T20:18:12.445Z,101951.03
2023-08-28T20:20:25.589Z,101950.96
2023-08-28T20:22:40.341Z,101953.11
2023-08-28T20:24:55.121Z,101956.11
2023-08-28T20:27:10.146Z,101955.80
2023-08-28T20:29:23.076Z,101957.34
2023-08-28T20:31:36.012Z,101957.30
2023-08-28T20:33:49.271Z,101956.60
2023-08-28T20:36:02.135Z,101955.85
2023-08-28T20:38:15.143Z,101959.83
2023-08-28T20:40:29.089Z,101969.90
2023-08-28T20:42:42.285Z,101971.95
2023-08-28T20:44:55.471Z,101969.39
2023-08-28T20:47:08.504Z,101966.55
2023-08-28T20:49:21.221Z,101965.50
2023-08-28T20:51:35.110Z,101965.46
2023-08-28T20:53:48.142Z,101963.19
2023-08-28T20:56:01.824Z,101964.55
2023-08-28T20:58:14.677Z,101961.82
2023-08-28T21:00:27.801Z,101968.61
2023-08-28T21:02:41.047Z,101963.52
2023-08-28T21:04:54.327Z,101960.75
2023-08-28T21:07:07.470Z,101963.80
2023-08-28T21:09:20.545Z,101965.14
2023-08-28T21:11:33.944Z,101957.63
2023-08-28T21:13:47.258Z,101953.83
2023-08-28T21:16:03.255Z,101955.39
2023-08-28T21:18:16.729Z,101949.00
2023-08-28T21:20:29.890Z,101944.39
2023-08-28T21:22:42.699Z,101934.58
2023-08-28T21:24:55.591Z,101934.45
2023-08-28T21:27:08.873Z,101933.81
2023-08-28T21:29:21.714Z,101931.61
2023-08-28T21:31:34.666Z,101927.73
2023-08-28T21:33:48.778Z,101932.52
2023-08-28T21:36:02.294Z,101931.23
2023-08-28T21:38:15.056Z,101930.63
2023-08-28T21:40:28.696Z,101931.96
2023-08-28T21:42:41.811Z,101931.36
2023-08-28T21:44:55.599Z,101929.84
2023-08-28T21:47:08.616Z,101928.73
2023-08-28T21:49:40.624Z,101924.61
2023-08-28T21:52:12.678Z,101925.16
2023-08-28T21:54:44.182Z,101927.02
2023-08-28T21:57:16.165Z,101927.52
2023-08-28T21:59:48.688Z,101930.45
2023-08-28T22:02:17.664Z,101932.27
2023-08-28T22:04:51.683Z,101928.09
2023-08-28T22:07:23.446Z,101927.52
2023-08-28T22:09:57.911Z,101929.98
2023-08-28T22:12:15.686Z,101931.50
2023-08-28T22:14:28.830Z,101928.79
2023-08-28T22:16:41.974Z,101929.42
2023-08-28T22:18:54.741Z,101925.94
2023-08-28T22:21:07.756Z,101930.19
2023-08-28T22:23:20.471Z,101929.30
2023-08-28T22:25:33.257Z,101931.33
2023-08-28T22:27:46.128Z,101926.57
2023-08-28T22:29:59.369Z,101925.34
2023-08-28T22:32:12.644Z,101919.15
2023-08-28T22:34:26.079Z,101923.67
2023-08-28T22:36:38.819Z,101921.45
2023-08-28T22:38:52.022Z,101922.50
2023-08-28T22:41:05.843Z,101920.10
2023-08-28T22:43:18.759Z,101921.86
2023-08-28T22:45:31.579Z,101921.73
2023-08-28T22:47:44.927Z,101921.40
2023-08-28T22:49:58.108Z,101918.36
2023-08-28T22:52:11.461Z,101923.58
2023-08-28T22:54:24.427Z,101926.27
2023-08-28T22:56:37.769Z,101928.14
2023-08-28T22:58:51.018Z,101932.98
2023-08-28T23:01:05.054Z,101932.09
2023-08-28T23:03:18.070Z,101930.02
2023-08-28T23:05:31.058Z,101933.16
2023-08-28T23:07:43.812Z,101932.98
2023-08-28T23:09:57.034Z,101932.41
2023-08-28T23:12:10.477Z,101927.75
2023-08-28T23:14:23.683Z,101931.36
2023-08-28T23:16:36.463Z,101929.30
2023-08-28T23:18:50.295Z,101931.95
2023-08-28T23:21:04.956Z,101930.27
2023-08-28T23:23:17.998Z,101934.02
2023-08-28T23:25:32.976Z,101937.31
2023-08-28T23:27:45.765Z,101938.59
2023-08-28T23:29:59.158Z,101936.52
2023-08-28T23:32:13.952Z,101935.92
2023-08-28T23:34:26.659Z,101938.91
2023-08-28T23:36:39.752Z,101935.70
2023-08-28T23:38:52.739Z,101931.77
2023-08-28T23:41:05.632Z,101924.74
2023-08-28T23:43:18.562Z,101924.00
2023-08-28T23:45:31.437Z,101923.45
2023-08-28T23:47:45.325Z,101923.77
2023-08-28T23:49:58.545Z,101920.23
2023-08-28T23:52:12.077Z,101922.86
2023-08-28T23:54:25.138Z,101919.25
2023-08-28T23:56:38.067Z,101920.02
2023-08-28T23:58:50.844Z,101920.31
